Time;durP1;ratioP1;P1;durP2;ratioP2;P2;SDS_P1;SDS_P2;PMS_P1;PMS_P2;Temp;Humidity;BMP_temperature;BMP_pressure;BME280_temperature;BME280_humidity;BME280_pressure;Samples;Min_cycle;Max_cycle;Signal;HPM_P1;HPM_P2
2021/07/30 00:01:51;;;;;;;12.57;6.30;;;;;;;17.75;55.00;100967.09;5092355;28;20040;-60
2021/07/30 00:04:19;;;;;;;20.85;6.90;;;;;;;17.77;54.63;100959.31;5092255;28;20040;-59
2021/07/30 00:06:46;;;;;;;14.02;5.90;;;;;;;17.76;54.60;100957.69;5092115;28;20040;-61
2021/07/30 00:09:14;;;;;;;10.25;5.28;;;;;;;17.72;54.68;100953.91;5090313;28;20044;-61
2021/07/30 00:11:42;;;;;;;12.93;5.47;;;;;;;17.68;54.75;100963.97;5092344;28;20032;-61
2021/07/30 00:14:10;;;;;;;9.73;5.28;;;;;;;17.67;54.93;100959.56;5092154;28;20043;-61
2021/07/30 00:16:39;;;;;;;10.18;5.10;;;;;;;17.69;54.73;100957.31;5091908;28;20093;-60
2021/07/30 00:19:07;;;;;;;10.98;5.20;;;;;;;17.70;55.22;100960.88;5092337;28;20040;-60
2021/07/30 00:21:34;;;;;;;11.05;5.35;;;;;;;17.70;55.21;100958.13;5092005;28;20040;-60
2021/07/30 00:24:03;;;;;;;11.38;5.10;;;;;;;17.65;54.73;100956.31;5093704;28;20097;-61
2021/07/30 00:26:30;;;;;;;10.52;4.68;;;;;;;17.61;55.73;100961.63;5096027;28;20051;-60
2021/07/30 00:29:00;;;;;;;10.57;4.40;;;;;;;17.58;55.17;100956.75;5095641;28;20040;-60
2021/07/30 00:31:27;;;;;;;9.23;4.63;;;;;;;17.56;55.47;100958.19;5096226;28;20454;-61
2021/07/30 00:33:59;;;;;;;9.82;4.70;;;;;;;17.54;55.43;100955.75;5095633;28;20046;-61
2021/07/30 00:36:27;;;;;;;12.57;4.70;;;;;;;17.46;55.64;100950.97;5095761;28;20044;-56
2021/07/30 00:38:55;;;;;;;11.82;5.20;;;;;;;17.38;56.04;100947.00;5095472;28;20043;-60
2021/07/30 00:41:22;;;;;;;10.43;4.70;;;;;;;17.36;55.88;100949.25;5095698;28;20048;-59
2021/07/30 00:43:50;;;;;;;12.57;5.38;;;;;;;17.34;56.14;100943.28;5095715;28;20429;-60
2021/07/30 00:46:18;;;;;;;13.07;5.25;;;;;;;17.33;55.62;100944.38;5095609;28;20051;-61
2021/07/30 00:48:45;;;;;;;9.18;5.13;;;;;;;17.32;55.87;100955.69;5094323;28;20036;-59
2021/07/30 00:51:14;;;;;;;12.68;5.00;;;;;;;17.29;56.34;100942.56;5095165;28;20058;-59
2021/07/30 00:53:42;;;;;;;11.35;4.60;;;;;;;17.32;56.08;100942.75;5095429;28;20240;-60
2021/07/30 00:56:09;;;;;;;8.82;4.47;;;;;;;17.33;56.33;100938.88;5095500;28;20044;-59
2021/07/30 00:58:37;;;;;;;11.43;5.25;;;;;;;17.36;56.35;100935.47;5095602;28;20040;-61
2021/07/30 01:01:07;;;;;;;9.60;4.63;;;;;;;17.33;56.37;100938.88;5095054;28;20486;-60
2021/07/30 01:03:35;;;;;;;7.95;4.25;;;;;;;17.31;56.19;100938.34;5093800;28;20062;-60
2021/07/30 01:06:03;;;;;;;10.25;4.80;;;;;;;17.26;56.08;100941.22;5094943;28;20044;-60
2021/07/30 01:08:30;;;;;;;13.13;5.18;;;;;;;17.23;57.24;100941.88;5095322;28;20039;-60
2021/07/30 01:10:58;;;;;;;8.88;4.40;;;;;;;17.21;57.01;100935.84;5094852;28;20048;-61
2021/07/30 01:13:26;;;;;;;11.10;4.80;;;;;;;17.18;56.49;100953.00;5095416;28;20036;-60
2021/07/30 01:15:53;;;;;;;10.77;5.32;;;;;;;17.09;56.57;100947.41;5095169;28;20131;-58
2021/07/30 01:18:21;;;;;;;13.18;5.00;;;;;;;17.03;56.88;100941.19;5095109;28;20036;-59
2021/07/30 01:21:27;;;;;;;9.35;4.68;;;;;;;16.99;57.24;100951.19;5094875;28;20079;-58
2021/07/30 01:23:54;;;;;;;13.02;4.85;;;;;;;16.97;57.18;100942.41;5042475;28;20057;-59
2021/07/30 01:26:22;;;;;;;14.20;5.43;;;;;;;16.94;57.20;100943.03;5052714;28;20535;-60
2021/07/30 01:28:53;;;;;;;11.15;4.72;;;;;;;16.94;57.58;100947.72;5052626;28;20037;-60
2021/07/30 01:31:21;;;;;;;10.50;5.30;;;;;;;16.94;57.41;100954.03;5053001;28;20049;-60
2021/07/30 01:33:50;;;;;;;10.48;4.90;;;;;;;16.95;57.48;100944.66;5051875;28;20451;-59
2021/07/30 01:36:18;;;;;;;10.02;5.38;;;;;;;16.97;57.38;100942.41;5051134;28;20045;-60
2021/07/30 01:38:46;;;;;;;12.13;5.18;;;;;;;16.93;57.57;100946.94;5052086;28;20132;-60
2021/07/30 01:41:15;;;;;;;11.70;4.88;;;;;;;16.88;57.63;100944.25;5027601;28;20049;-59
2021/07/30 01:43:43;;;;;;;9.65;4.90;;;;;;;16.87;57.93;100939.88;5046538;28;20385;-60
2021/07/30 01:46:11;;;;;;;7.72;4.45;;;;;;;16.85;58.18;100944.88;5052022;28;20041;-60
2021/07/30 01:48:39;;;;;;;12.25;5.60;;;;;;;16.84;58.06;100940.50;5051899;28;20072;-60
2021/07/30 01:51:08;;;;;;;11.02;5.13;;;;;;;16.83;58.05;100939.66;5051324;28;20053;-59
2021/07/30 01:53:35;;;;;;;9.63;4.50;;;;;;;16.84;58.32;100937.75;5051802;28;20403;-61
2021/07/30 01:56:07;;;;;;;8.38;4.45;;;;;;;16.82;58.25;100940.81;5051650;28;20043;-60
2021/07/30 01:58:34;;;;;;;11.23;5.22;;;;;;;16.81;58.32;100938.34;5051905;28;20045;-60
2021/07/30 02:01:03;;;;;;;13.10;5.07;;;;;;;16.72;58.24;100932.75;5072088;28;20042;-60
2021/07/30 02:03:31;;;;;;;11.77;5.78;;;;;;;16.70;58.80;100928.66;5094231;28;20040;-61
2021/07/30 02:06:04;;;;;;;10.02;4.55;;;;;;;16.70;58.97;100925.91;5091273;28;20047;-60
2021/07/30 02:08:32;;;;;;;12.13;4.82;;;;;;;16.73;58.68;100928.03;5093540;28;20502;-60
2021/07/30 02:11:00;;;;;;;12.30;5.15;;;;;;;16.71;58.66;100928.34;5094114;28;20052;-60
2021/07/30 02:16:14;;;;;;;11.15;4.88;;;;;;;16.67;58.95;100921.00;5093579;28;20498;-58
2021/07/30 02:18:41;;;;;;;10.55;4.90;;;;;;;16.64;59.48;100930.69;5093906;28;20040;-60
2021/07/30 02:21:09;;;;;;;11.07;4.43;;;;;;;16.62;59.54;100935.72;5093737;28;20044;-60
2021/07/30 02:23:36;;;;;;;15.20;5.15;;;;;;;16.61;59.54;100929.38;5093732;28;20482;-60
2021/07/30 02:26:04;;;;;;;9.63;4.72;;;;;;;16.59;59.50;100914.28;5093680;28;20044;-60
2021/07/30 02:28:31;;;;;;;12.95;5.10;;;;;;;16.57;59.28;100917.38;5093331;28;20040;-60
2021/07/30 02:30:59;;;;;;;12.23;5.53;;;;;;;16.56;59.56;100921.22;5092518;28;20040;-61
2021/07/30 02:33:27;;;;;;;8.95;4.00;;;;;;;16.61;59.54;100912.06;5093148;28;20036;-61
2021/07/30 02:35:54;;;;;;;11.30;4.97;;;;;;;16.59;59.57;100915.09;5093655;28;20044;-60
2021/07/30 02:38:22;;;;;;;9.85;4.30;;;;;;;16.59;59.71;100923.34;5093523;28;20048;-61
2021/07/30 02:40:49;;;;;;;12.45;4.20;;;;;;;16.64;59.65;100918.88;5093363;28;20044;-61
2021/07/30 02:43:17;;;;;;;11.00;4.97;;;;;;;16.69;59.80;100916.84;5093586;28;20394;-61
2021/07/30 02:45:44;;;;;;;10.00;4.88;;;;;;;16.72;59.69;100915.41;5093136;28;20134;-53
2021/07/30 02:48:12;;;;;;;9.38;4.60;;;;;;;16.72;59.74;100918.19;5092134;28;20445;-59
2021/07/30 02:50:40;;;;;;;7.60;4.45;;;;;;;16.71;59.68;100911.03;5092911;28;20402;-60
2021/07/30 02:53:07;;;;;;;12.60;4.90;;;;;;;16.67;59.39;100905.34;5093162;28;20040;-60
2021/07/30 02:55:35;;;;;;;13.73;5.20;;;;;;;16.62;59.92;100908.19;5093088;28;20028;-60
2021/07/30 02:58:02;;;;;;;10.93;4.70;;;;;;;16.62;59.90;100905.44;5093030;28;20046;-60
2021/07/30 03:00:30;;;;;;;12.70;5.50;;;;;;;16.64;59.75;100896.88;5092963;28;20051;-60
2021/07/30 03:02:57;;;;;;;8.73;4.43;;;;;;;16.59;59.94;100895.03;5092782;28;20044;-59
2021/07/30 03:05:25;;;;;;;11.45;4.95;;;;;;;16.56;60.34;100898.41;5092994;28;20040;-60
2021/07/30 03:07:53;;;;;;;15.38;5.47;;;;;;;16.50;60.25;100888.63;5091638;28;20044;-57
2021/07/30 03:10:20;;;;;;;11.38;5.25;;;;;;;16.41;60.26;100883.03;5092964;28;20048;-60
2021/07/30 03:12:48;;;;;;;13.00;6.00;;;;;;;16.34;61.06;100891.69;5092485;28;20028;-60
2021/07/30 03:15:16;;;;;;;12.88;5.60;;;;;;;16.31;61.35;100889.56;5092712;28;20052;-60
2021/07/30 03:17:43;;;;;;;10.80;5.03;;;;;;;16.28;61.16;100886.56;5092304;28;20048;-59
2021/07/30 03:20:11;;;;;;;10.40;5.60;;;;;;;16.26;61.47;100883.31;5092735;28;20028;-60
2021/07/30 03:22:39;;;;;;;11.95;5.38;;;;;;;16.23;61.45;100882.00;5092928;28;20040;-60
2021/07/30 03:25:07;;;;;;;9.93;5.10;;;;;;;16.23;61.81;100887.50;5092587;28;20442;-60
2021/07/30 03:27:34;;;;;;;14.68;5.88;;;;;;;16.19;61.94;100884.56;5092737;28;20040;-61
2021/07/30 03:30:02;;;;;;;9.40;5.15;;;;;;;16.16;61.87;100881.59;5092643;28;20406;-60
2021/07/30 03:32:30;;;;;;;11.35;5.63;;;;;;;16.18;62.26;100873.84;5092277;28;20040;-60
2021/07/30 03:34:57;;;;;;;11.23;4.93;;;;;;;16.19;62.05;100865.31;5092280;28;20036;-59
2021/07/30 03:37:25;;;;;;;13.50;5.50;;;;;;;16.18;61.86;100866.41;5092503;28;20040;-60
2021/07/30 03:39:53;;;;;;;13.68;5.90;;;;;;;16.12;62.31;100862.16;5092596;28;20414;-61
2021/07/30 03:42:20;;;;;;;14.35;5.63;;;;;;;16.03;62.92;100869.47;5092588;28;20036;-60
2021/07/30 03:44:48;;;;;;;11.18;5.40;;;;;;;15.98;63.14;100875.88;5091747;28;20051;-60
2021/07/30 03:47:15;;;;;;;13.15;5.78;;;;;;;15.98;63.25;100872.31;5092316;28;20047;-60
2021/07/30 03:49:43;;;;;;;11.23;5.65;;;;;;;15.98;63.35;100880.56;5092089;28;20516;-58
2021/07/30 03:52:10;;;;;;;12.23;5.13;;;;;;;16.01;63.28;100871.69;5073780;28;20063;-60
2021/07/30 03:54:38;;;;;;;10.90;5.53;;;;;;;16.04;62.92;100865.59;5092455;28;20040;-60
2021/07/30 03:57:06;;;;;;;11.82;5.00;;;;;;;16.01;63.19;100870.88;5091916;28;20044;-60
2021/07/30 03:59:34;;;;;;;12.93;5.88;;;;;;;16.02;63.39;100875.25;5091916;28;20055;-60
2021/07/30 04:02:01;;;;;;;11.27;5.40;;;;;;;16.04;63.35;100862.03;5073746;28;20103;-59
2021/07/30 04:04:29;;;;;;;12.93;5.07;;;;;;;16.07;63.41;100867.75;5092303;28;20040;-60
2021/07/30 04:06:57;;;;;;;12.63;5.28;;;;;;;16.09;63.49;100857.25;5092100;28;20438;-61
2021/07/30 04:09:25;;;;;;;12.15;5.00;;;;;;;16.12;63.29;100862.16;5092195;28;20036;-61
2021/07/30 04:11:53;;;;;;;14.38;6.03;;;;;;;16.13;63.00;100863.75;5073990;28;20044;-61
2021/07/30 04:14:20;;;;;;;14.18;5.97;;;;;;;16.06;63.27;100863.34;5091737;28;20068;-60
2021/07/30 04:16:48;;;;;;;15.48;5.28;;;;;;;16.02;63.26;100862.34;5091833;28;20040;-56
2021/07/30 04:19:16;;;;;;;13.45;5.70;;;;;;;15.95;63.75;100868.22;5092087;28;20106;-60
2021/07/30 04:21:43;;;;;;;11.18;5.55;;;;;;;15.98;63.79;100872.31;5091953;28;20055;-60
2021/07/30 04:24:11;;;;;;;10.43;4.97;;;;;;;15.97;63.90;100868.75;5092215;28;20044;-60
2021/07/30 04:26:38;;;;;;;12.48;5.53;;;;;;;16.03;63.65;100866.72;5091907;28;20041;-60
2021/07/30 04:29:06;;;;;;;13.60;5.25;;;;;;;16.09;63.70;100859.19;5091770;28;20044;-59
2021/07/30 04:31:40;;;;;;;11.32;5.32;;;;;;;16.15;63.66;100867.03;5091495;28;20055;-60
2021/07/30 04:34:08;;;;;;;11.98;5.60;;;;;;;16.21;63.47;100853.19;5091919;28;20429;-60
2021/07/30 04:36:36;;;;;;;14.45;5.55;;;;;;;16.23;63.05;100859.19;5091551;28;20051;-60
2021/07/30 04:39:04;;;;;;;12.48;5.88;;;;;;;16.26;63.16;100850.31;5091990;28;20032;-60
2021/07/30 04:41:32;;;;;;;13.77;6.18;;;;;;;16.23;63.13;100849.00;5091901;28;20364;-60
2021/07/30 04:44:00;;;;;;;12.98;5.65;;;;;;;16.22;63.63;100857.56;5091551;28;20055;-60
2021/07/30 04:46:28;;;;;;;15.95;5.60;;;;;;;16.18;63.53;100855.41;5091453;28;20044;-58
2021/07/30 04:48:56;;;;;;;11.27;5.30;;;;;;;16.15;63.70;100846.97;5091670;28;20498;-60
2021/07/30 04:51:24;;;;;;;13.20;5.35;;;;;;;16.15;63.66;100839.53;5091758;28;20056;-59
2021/07/30 04:53:51;;;;;;;16.80;6.30;;;;;;;16.17;63.73;100842.81;5091566;28;20059;-59
2021/07/30 04:56:19;;;;;;;15.10;6.40;;;;;;;16.18;64.13;100833.41;5091859;28;20040;-60
2021/07/30 04:58:51;;;;;;;14.27;5.43;;;;;;;16.21;63.86;100842.19;5090903;28;20040;-60
2021/07/30 05:01:19;;;;;;;14.50;6.15;;;;;;;16.23;63.72;100835.25;5091499;28;20054;-60
2021/07/30 05:03:47;;;;;;;10.15;5.00;;;;;;;16.27;63.87;100839.03;5091204;28;20552;-60
2021/07/30 05:06:16;;;;;;;14.95;5.80;;;;;;;16.28;64.25;100842.59;5091229;28;20038;-60
2021/07/30 05:08:44;;;;;;;15.40;6.07;;;;;;;16.27;64.18;100835.47;5091404;28;20170;-61
2021/07/30 05:11:13;;;;;;;13.60;5.95;;;;;;;16.21;64.50;100831.19;5093694;28;20039;-60
2021/07/30 05:13:42;;;;;;;11.88;5.70;;;;;;;16.15;64.86;100817.53;5094797;28;20051;-60
2021/07/30 05:16:11;;;;;;;14.52;5.90;;;;;;;16.17;65.12;100829.06;5094791;28;20121;-59
2021/07/30 05:18:39;;;;;;;11.70;5.68;;;;;;;16.22;64.62;100830.09;5094915;28;20075;-57
2021/07/30 05:21:08;;;;;;;12.80;5.97;;;;;;;16.27;64.61;100840.97;5094812;28;20040;-58
2021/07/30 05:23:36;;;;;;;15.10;5.80;;;;;;;16.33;64.41;100831.47;5096156;28;20478;-57
2021/07/30 05:26:04;;;;;;;11.35;5.43;;;;;;;16.35;64.70;100832.00;5094751;28;20052;-55
2021/07/30 05:28:31;;;;;;;12.40;5.65;;;;;;;16.36;64.39;100825.41;5094426;28;20036;-56
2021/07/30 05:30:59;;;;;;;14.95;6.25;;;;;;;16.40;64.52;100818.13;5092716;28;20573;-60
2021/07/30 05:33:28;;;;;;;12.02;5.53;;;;;;;16.38;64.54;100823.97;5093505;28;20557;-60
2021/07/30 05:35:56;;;;;;;14.15;6.32;;;;;;;16.38;64.97;100825.91;5093481;28;20398;-61
2021/07/30 05:38:24;;;;;;;12.77;6.15;;;;;;;16.37;64.89;100818.75;5093907;28;20046;-61
2021/07/30 05:40:51;;;;;;;14.70;5.80;;;;;;;16.34;65.18;100820.19;5093913;28;20036;-58
2021/07/30 05:43:19;;;;;;;13.23;5.05;;;;;;;16.38;65.10;100820.41;5093992;28;20040;-60
2021/07/30 05:45:47;;;;;;;14.80;6.25;;;;;;;16.40;65.42;100818.97;5094260;28;20048;-61
2021/07/30 05:48:14;;;;;;;13.60;6.10;;;;;;;16.42;65.22;100815.91;5094129;28;20066;-60
2021/07/30 05:50:48;;;;;;;11.52;5.80;;;;;;;16.48;65.32;100814.69;5093909;28;20048;-59
2021/07/30 05:53:15;;;;;;;16.95;5.93;;;;;;;16.49;64.97;100810.78;5094344;28;20036;-60
2021/07/30 05:55:43;;;;;;;14.05;6.13;;;;;;;16.52;65.29;100817.63;5091796;28;20040;-57
2021/07/30 05:58:10;;;;;;;13.25;5.80;;;;;;;16.55;65.18;100817.81;5093887;28;20075;-60
2021/07/30 06:00:38;;;;;;;16.45;6.10;;;;;;;16.57;65.23;100804.59;5093119;28;20460;-60
2021/07/30 06:03:06;;;;;;;11.60;5.82;;;;;;;16.59;65.39;100810.56;5093928;28;20106;-60
2021/07/30 06:05:35;;;;;;;14.75;6.35;;;;;;;16.63;65.17;100816.28;5093666;28;20048;-60
2021/07/30 06:08:05;;;;;;;12.50;6.15;;;;;;;16.63;65.10;100810.78;5075805;28;20047;-60
2021/07/30 06:10:33;;;;;;;14.18;6.90;;;;;;;16.61;65.62;100808.31;5093423;28;20060;-58
2021/07/30 06:13:01;;;;;;;15.05;6.00;;;;;;;16.61;65.78;100807.50;5093508;28;20049;-60
2021/07/30 06:15:29;;;;;;;14.63;6.15;;;;;;;16.65;66.15;100808.53;5069293;28;20491;-60
2021/07/30 06:17:57;;;;;;;17.20;5.90;;;;;;;16.69;65.78;100803.22;5090486;28;20478;-63
2021/07/30 06:20:24;;;;;;;15.25;6.05;;;;;;;16.73;66.07;100809.72;5093435;28;20044;-61
2021/07/30 06:22:52;;;;;;;10.07;5.55;;;;;;;16.75;66.06;100807.50;5093133;28;20494;-63
2021/07/30 06:25:20;;;;;;;11.57;5.65;;;;;;;16.82;65.75;100802.41;5093507;28;20046;-62
2021/07/30 06:27:47;;;;;;;13.52;5.85;;;;;;;16.85;65.72;100801.78;5078508;28;20028;-62
2021/07/30 06:30:15;;;;;;;12.98;5.97;;;;;;;16.85;66.09;100801.78;5092355;28;20042;-54
2021/07/30 06:32:43;;;;;;;11.18;4.75;;;;;;;16.88;65.74;100797.59;5092661;28;20050;-60
2021/07/30 06:35:13;;;;;;;14.30;5.75;;;;;;;16.88;65.91;100795.63;5093045;28;20504;-56
2021/07/30 06:37:41;;;;;;;13.90;5.97;;;;;;;16.92;65.48;100799.41;5093116;28;20040;-58
2021/07/30 06:40:09;;;;;;;14.27;6.28;;;;;;;16.95;66.01;100804.28;5074376;28;20062;-59
2021/07/30 06:42:37;;;;;;;17.40;7.13;;;;;;;16.96;65.79;100789.41;5092918;28;20500;-59
2021/07/30 06:45:06;;;;;;;17.52;6.20;;;;;;;16.99;65.52;100794.28;5092725;28;20043;-56
2021/07/30 06:47:34;;;;;;;17.77;7.03;;;;;;;17.00;65.64;100793.19;5093085;28;20042;-56
2021/07/30 06:50:06;;;;;;;15.20;5.80;;;;;;;17.04;65.57;100793.34;5092782;28;20040;-61
2021/07/30 06:52:33;;;;;;;15.15;6.43;;;;;;;17.07;65.67;100800.16;5093100;28;20119;-59
2021/07/30 06:55:02;;;;;;;14.35;6.32;;;;;;;17.08;65.34;100790.78;5092476;28;20098;-55
2021/07/30 06:57:30;;;;;;;15.68;6.70;;;;;;;17.08;65.50;100793.53;5092542;28;20055;-57
2021/07/30 06:59:58;;;;;;;15.30;6.40;;;;;;;17.09;65.71;100775.91;5092604;28;20047;-58
2021/07/30 07:02:26;;;;;;;20.27;6.63;;;;;;;17.11;65.55;100787.41;5091832;28;20050;-60
2021/07/30 07:04:54;;;;;;;15.95;6.40;;;;;;;17.14;65.52;100782.09;5092918;28;20394;-61
2021/07/30 07:07:22;;;;;;;16.17;6.18;;;;;;;17.14;65.60;100782.09;5092267;28;20066;-60
2021/07/30 07:09:53;;;;;;;17.10;6.78;;;;;;;17.14;65.65;100770.25;5092094;28;20512;-59
2021/07/30 07:12:21;;;;;;;18.35;6.97;;;;;;;17.13;65.89;100768.66;5092594;28;20044;-61
2021/07/30 07:14:48;;;;;;;14.82;6.30;;;;;;;17.13;66.22;100768.66;5074494;28;20036;-60
2021/07/30 07:17:18;;;;;;;17.73;7.22;;;;;;;17.15;65.97;100771.88;5092898;28;20067;-62
2021/07/30 07:19:46;;;;;;;15.93;7.00;;;;;;;17.17;66.44;100761.38;5092194;28;20123;-61
2021/07/30 07:22:14;;;;;;;17.80;6.78;;;;;;;17.18;66.51;100765.75;5092442;28;20054;-62
2021/07/30 07:24:41;;;;;;;16.52;6.55;;;;;;;17.19;66.40;100762.69;5057192;28;20118;-57
2021/07/30 07:27:09;;;;;;;14.55;5.97;;;;;;;17.23;66.31;100768.38;5092265;28;20043;-59
2021/07/30 07:29:37;;;;;;;12.88;5.68;;;;;;;17.26;66.17;100767.75;5092232;28;20043;-58
2021/07/30 07:32:04;;;;;;;17.35;5.93;;;;;;;17.30;66.58;100760.50;5067714;28;20399;-58
2021/07/30 07:34:32;;;;;;;12.15;5.50;;;;;;;17.33;66.50;100762.59;5091636;28;20046;-60
2021/07/30 07:37:00;;;;;;;15.15;5.78;;;;;;;17.39;66.15;100758.59;5077889;28;20036;-61
2021/07/30 07:39:27;;;;;;;14.02;5.60;;;;;;;17.43;65.97;100756.03;5091844;28;20032;-60
2021/07/30 07:41:56;;;;;;;14.95;5.95;;;;;;;17.44;66.10;100752.97;5092005;28;20040;-61
2021/07/30 07:44:25;;;;;;;12.05;5.03;;;;;;;17.45;65.90;100753.75;5092521;28;20046;-60
2021/07/30 07:46:53;;;;;;;16.80;5.65;;;;;;;17.49;66.02;100757.53;5091860;28;20405;-61
2021/07/30 07:49:20;;;;;;;13.45;5.75;;;;;;;17.52;66.43;100756.06;5092184;28;20036;-60
2021/07/30 07:51:48;;;;;;;11.35;5.10;;;;;;;17.58;65.98;100744.59;5091117;28;20062;-60
2021/07/30 07:54:35;;;;;;;13.50;5.13;;;;;;;17.64;65.49;100739.75;5091771;28;20438;-59
2021/07/30 07:57:07;;;;;;;11.00;5.45;;;;;;;17.67;65.38;100739.13;5092130;28;20091;-59
2021/07/30 07:59:36;;;;;;;11.73;5.43;;;;;;;17.70;65.06;100734.91;5091542;28;20516;-60
2021/07/30 08:02:07;;;;;;;13.48;5.40;;;;;;;17.73;65.35;100737.84;5062959;28;20044;-60
2021/07/30 08:04:35;;;;;;;17.40;7.57;;;;;;;17.77;65.29;100736.06;5073925;28;20044;-60
2021/07/30 08:07:03;;;;;;;10.07;5.00;;;;;;;17.81;65.13;100734.34;5091288;28;20036;-59
2021/07/30 08:09:31;;;;;;;10.80;4.30;;;;;;;17.87;64.76;100738.59;5092016;28;20036;-58
2021/07/30 08:11:59;;;;;;;18.77;5.40;;;;;;;17.94;65.27;100732.59;5091868;28;20040;-60
2021/07/30 08:14:26;;;;;;;8.20;3.42;;;;;;;17.99;64.38;100732.47;5077892;28;20506;-62
2021/07/30 08:16:54;;;;;;;11.70;4.90;;;;;;;18.11;63.72;100731.81;5091704;28;20129;-61
2021/07/30 08:19:22;;;;;;;8.70;4.07;;;;;;;18.18;63.44;100731.34;5091450;28;20036;-57
2021/07/30 08:21:50;;;;;;;13.60;5.00;;;;;;;18.23;63.25;100731.19;5091340;28;20046;-58
2021/07/30 08:24:17;;;;;;;10.18;3.85;;;;;;;18.21;63.20;100734.28;5090937;28;20040;-57
2021/07/30 08:26:45;;;;;;;8.70;4.13;;;;;;;18.23;63.19;100733.94;5092463;28;20048;-62
2021/07/30 08:29:13;;;;;;;9.60;4.40;;;;;;;18.25;63.67;100723.41;5092768;28;20044;-61
2021/07/30 08:31:40;;;;;;;15.00;4.68;;;;;;;18.30;63.47;100718.56;5068255;28;20397;-60
2021/07/30 08:34:08;;;;;;;11.82;4.43;;;;;;;18.36;63.53;100718.41;5074834;28;20054;-61
2021/07/30 08:36:35;;;;;;;13.95;4.78;;;;;;;18.43;63.14;100727.03;5073414;28;20044;-60
2021/07/30 08:39:03;;;;;;;17.73;5.65;;;;;;;18.45;62.98;100720.03;5091626;28;20032;-59
2021/07/30 08:41:32;;;;;;;10.23;4.80;;;;;;;18.47;62.54;100711.44;5091792;28;20128;-60
2021/07/30 08:44:00;;;;;;;7.72;3.53;;;;;;;18.55;62.45;100718.09;5091780;28;20037;-61
2021/07/30 08:46:32;;;;;;;8.75;4.00;;;;;;;18.57;61.94;100718.56;5092813;28;20052;-58
2021/07/30 08:49:01;;;;;;;10.88;4.45;;;;;;;18.59;62.17;100719.91;5095220;28;20510;-60
2021/07/30 08:51:32;;;;;;;12.20;3.80;;;;;;;18.69;61.86;100708.53;5095024;28;20056;-59
2021/07/30 08:54:00;;;;;;;7.25;3.63;;;;;;;18.70;61.38;100704.59;5064094;28;20044;-58
2021/07/30 08:56:27;;;;;;;11.00;4.40;;;;;;;18.73;61.79;100709.47;5095348;28;20040;-58
2021/07/30 08:58:55;;;;;;;8.52;3.90;;;;;;;18.78;61.25;100704.97;5094880;28;20103;-57
2021/07/30 09:01:22;;;;;;;7.75;3.88;;;;;;;18.80;61.46;100708.22;5071464;28;20051;-60
2021/07/30 09:03:50;;;;;;;7.53;3.55;;;;;;;18.85;61.79;100705.28;5094957;28;20036;-59
2021/07/30 09:06:20;;;;;;;10.60;4.28;;;;;;;18.86;61.75;100701.41;5095052;28;20048;-59
2021/07/30 09:09:07;;;;;;;8.65;4.07;;;;;;;18.85;61.60;100695.03;5094873;28;20048;-59
2021/07/30 09:11:37;;;;;;;10.05;3.90;;;;;;;18.87;61.79;100691.97;5076946;28;20584;-60
2021/07/30 09:14:07;;;;;;;10.90;4.55;;;;;;;18.91;61.59;100693.75;5094358;28;20036;-58
2021/07/30 09:16:51;;;;;;;7.30;4.05;;;;;;;18.96;61.61;100690.00;5094694;28;20043;-60
2021/07/30 09:19:20;;;;;;;5.35;2.92;;;;;;;19.04;62.25;100697.44;5094382;28;20044;-57
2021/07/30 09:21:47;;;;;;;9.02;3.70;;;;;;;19.18;60.78;100694.50;5094507;28;20048;-61
2021/07/30 09:24:19;;;;;;;6.80;3.38;;;;;;;19.19;61.07;100678.72;5077252;28;20380;-60
2021/07/30 09:26:52;;;;;;;7.38;3.10;;;;;;;19.21;60.47;100680.00;5094394;28;20052;-62
2021/07/30 09:29:28;;;;;;;8.85;3.25;;;;;;;19.25;59.93;100674.66;5076482;28;20044;-63
2021/07/30 09:32:09;;;;;;;8.38;3.85;;;;;;;19.31;59.81;100676.09;5094163;28;20044;-60
2021/07/30 09:34:41;;;;;;;6.22;2.88;;;;;;;19.40;59.64;100665.81;5093798;28;20051;-56
2021/07/30 09:37:26;;;;;;;15.75;4.28;;;;;;;19.44;59.27;100658.50;5094154;28;20040;-59
2021/07/30 09:39:54;;;;;;;8.98;3.60;;;;;;;19.57;59.86;100653.88;5094271;28;20132;-60
2021/07/30 09:42:29;;;;;;;9.48;3.45;;;;;;;19.64;59.21;100650.59;5076356;28;20036;-59
2021/07/30 09:44:59;;;;;;;7.75;3.33;;;;;;;19.71;59.10;100653.66;5094195;28;20044;-58
2021/07/30 09:47:33;;;;;;;7.35;3.15;;;;;;;19.79;59.97;100650.03;5094224;28;20044;-58
2021/07/30 09:50:04;;;;;;;8.07;3.30;;;;;;;19.83;59.33;100642.69;5093364;28;20048;-57
2021/07/30 09:52:42;;;;;;;13.70;3.63;;;;;;;19.90;59.37;100637.44;5094241;28;20079;-60
2021/07/30 09:55:11;;;;;;;11.40;3.35;;;;;;;19.90;58.32;100639.41;5075847;28;20044;-55
2021/07/30 09:57:40;;;;;;;5.82;2.83;;;;;;;20.10;58.27;100635.84;5093663;28;20051;-59
2021/07/30 10:00:10;;;;;;;6.13;3.05;;;;;;;20.13;57.67;100631.56;5093737;28;20134;-57
2021/07/30 10:02:40;;;;;;;10.75;3.20;;;;;;;20.18;57.71;100629.44;5093631;28;20044;-61
2021/07/30 10:05:10;;;;;;;9.50;3.20;;;;;;;20.18;56.92;100628.63;5093666;28;20120;-57
2021/07/30 10:07:39;;;;;;;7.18;3.40;;;;;;;20.22;56.77;100627.59;5079162;28;20123;-59
2021/07/30 10:12:52;;;;;;;7.38;3.08;;;;;;;20.28;56.63;100617.16;5089517;28;20040;-58
2021/07/30 10:15:21;;;;;;;5.80;2.88;;;;;;;20.30;56.99;100620.41;5090776;28;20036;-59
2021/07/30 10:17:50;;;;;;;5.15;2.60;;;;;;;20.34;56.67;100613.00;5075251;28;20048;-56
2021/07/30 10:20:20;;;;;;;12.77;4.20;;;;;;;20.35;56.71;100611.88;5075578;28;20048;-57
2021/07/30 10:22:51;;;;;;;11.40;3.40;;;;;;;20.40;57.17;100608.09;5093289;28;20452;-59
2021/07/30 10:25:28;;;;;;;17.65;7.65;;;;;;;20.46;57.21;100592.06;5093494;28;20040;-60
2021/07/30 10:27:58;;;;;;;12.70;5.65;;;;;;;20.47;56.33;100590.91;5093158;28;20047;-60
2021/07/30 10:30:26;;;;;;;13.93;7.25;;;;;;;20.48;57.00;100589.78;5055169;28;20055;-60
2021/07/30 10:32:57;;;;;;;39.75;26.65;;;;;;;20.55;56.56;100578.97;5092569;28;20040;-60
2021/07/30 10:35:27;;;;;;;143.13;83.60;;;;;;;20.62;57.41;100579.25;5093034;28;20470;-58
2021/07/30 10:38:21;;;;;;;214.18;112.78;;;;;;;20.69;56.98;100576.72;5093199;28;20040;-60
2021/07/30 10:41:07;;;;;;;55.78;22.00;;;;;;;20.75;55.66;100578.09;5082586;28;20059;-60
2021/07/30 10:44:00;;;;;;;84.63;41.38;;;;;;;20.85;55.35;100569.38;5092959;28;20118;-60
2021/07/30 10:46:28;;;;;;;76.25;37.95;;;;;;;20.89;56.18;100568.69;5092101;28;20052;-58
2021/07/30 10:48:56;;;;;;;154.88;81.82;;;;;;;20.93;56.07;100575.16;5075121;28;20043;-57
2021/07/30 10:51:29;;;;;;;83.25;43.00;;;;;;;20.97;56.04;100565.00;5092678;28;20048;-57
2021/07/30 10:54:04;;;;;;;168.27;85.47;;;;;;;21.01;56.29;100565.94;5089988;28;20130;-60
2021/07/30 10:56:31;;;;;;;76.47;36.97;;;;;;;20.97;54.71;100571.38;5090516;28;20044;-56
2021/07/30 10:58:59;;;;;;;82.57;41.22;;;;;;;20.97;55.76;100559.44;5092510;28;20044;-58
2021/07/30 11:01:29;;;;;;;36.35;16.35;;;;;;;20.95;54.97;100556.22;5091835;28;20101;-59
2021/07/30 11:04:07;;;;;;;62.08;30.35;;;;;;;21.00;54.86;100558.78;5092750;28;20170;-55
2021/07/30 11:06:37;;;;;;;24.00;11.82;;;;;;;21.00;54.79;100542.16;5092491;28;20050;-59
2021/07/30 11:09:05;;;;;;;51.30;25.38;;;;;;;21.05;55.39;100541.94;5091880;28;20036;-55
2021/07/30 11:11:39;;;;;;;46.38;20.75;;;;;;;21.12;55.08;100544.09;5092614;28;20066;-59
2021/07/30 11:14:30;;;;;;;59.75;32.13;;;;;;;21.15;55.07;100540.66;5090147;28;20437;-58
2021/07/30 11:17:00;;;;;;;51.20;26.15;;;;;;;21.17;55.20;100536.38;5073971;28;20035;-60
2021/07/30 11:19:33;;;;;;;10.05;4.88;;;;;;;21.23;54.17;100534.97;5092297;28;20945;-59
2021/07/30 11:22:03;;;;;;;24.38;10.35;;;;;;;21.30;53.65;100528.06;5092239;28;20060;-56
2021/07/30 11:24:37;;;;;;;38.20;18.52;;;;;;;21.31;54.61;100540.75;5094944;28;20036;-56
2021/07/30 11:27:06;;;;;;;34.22;17.42;;;;;;;21.34;54.22;100534.53;5091131;28;20048;-61
2021/07/30 11:29:34;;;;;;;46.90;24.90;;;;;;;21.39;54.03;100537.91;5074166;28;20392;-60
2021/07/30 11:32:07;;;;;;;16.15;7.30;;;;;;;21.46;53.50;100538.13;5073866;28;20486;-61